Meteorología y climatología de Navarra
Datos de la estación - Meteo Navarra

Estación de Eltzaburu GN

Altitud 588 m.


Datos desde el 11/01/2019 hasta el 12/01/2019 en horario solar
Los datos son PROVISIONALES

Anterior Página 1 de 1 Siguiente Descargar: Formato para Excel 2000 o superior   Formato csv   Formato para OpenOffice Calc
Fecha Temperatura Humedad relativa Radiación global Insolación Precipitación Vel. viento 10 m Vel. viento 10 m Dir. viento 10 m
ºC % W/m² s l/m² m/s km/h º
11/01/2019 0:00 -1.2 83 0.0 0 0.0 2.0 7.3 348
11/01/2019 0:10 -1.2 83 0.0 0 0.0 2.0 7.1 304
11/01/2019 0:20 -1.2 83 0.0 0 0.0 2.4 8.5 316
11/01/2019 0:30 -1.2 83 0.0 0 0.0 3.1 11.2 321
11/01/2019 0:40 -1.2 84 0.0 0 0.0 2.8 10.1 334
11/01/2019 0:50 -1.2 83 0.0 0 0.0 3.3 11.9 311
11/01/2019 1:00 -1.2 83 0.0 0 0.0 2.8 9.9 340
11/01/2019 1:10 -1.1 83 0.0 0 0.0 2.1 7.6 336
11/01/2019 1:20 -1.0 81 0.0 0 0.0 2.0 7.0 330
11/01/2019 1:30 -1.0 82 0.0 0 0.0 3.0 10.8 332
11/01/2019 1:40 -1.1 84 0.0 0 0.0 3.8 13.5 322
11/01/2019 1:50 -1.3 86 0.0 0 0.0 3.3 11.9 327
11/01/2019 2:00 -1.4 87 0.0 0 0.0 3.1 11.0 325
11/01/2019 2:10 -1.4 87 0.0 0 0.0 2.1 7.6 310
11/01/2019 2:20 -1.4 87 0.0 0 0.0 2.7 9.8 318
11/01/2019 2:30 -1.4 86 0.0 0 0.0 2.3 8.3 318
11/01/2019 2:40 -1.5 85 0.0 0 0.0 2.5 9.1 318
11/01/2019 2:50 -1.6 84 0.0 0 0.0 3.2 11.4 321
11/01/2019 3:00 -1.6 83 0.0 0 0.0 2.7 9.7 321
11/01/2019 3:10 -1.6 83 0.0 0 0.0 2.0 7.1 325
11/01/2019 3:20 -1.6 81 0.0 0 0.0 1.5 5.3 310
11/01/2019 3:30 -1.6 80 0.0 0 0.0 1.7 6.2 298
11/01/2019 3:40 -1.6 78 0.0 0 0.0 2.1 7.6 304
11/01/2019 3:50 -1.7 79 0.0 0 0.0 1.8 6.6 298
11/01/2019 4:00 -1.8 79 0.0 0 0.0 1.5 5.5 288
11/01/2019 4:10 -1.9 78 0.0 0 0.0 0.8 3.0 289
11/01/2019 4:20 -2.1 79 0.0 0 0.0 0.4 1.4 237
11/01/2019 4:30 -2.2 80 0.0 0 0.0 0.7 2.4 312
11/01/2019 4:40 -2.3 80 0.0 0 0.0 1.1 4.0 316
11/01/2019 4:50 -2.1 79 0.0 0 0.0 2.0 7.1 291
11/01/2019 5:00 -2.0 78 0.0 0 0.0 1.0 3.7 295
11/01/2019 5:10 -2.2 81 0.0 0 0.0 1.0 3.7 44
11/01/2019 5:20 -2.5 83 0.0 0 0.0 0.3 1.0 126
11/01/2019 5:30 -2.5 82 0.0 0 0.0 0.8 2.9 37
11/01/2019 5:40 -2.5 82 0.0 0 0.0 0.7 2.4 336
11/01/2019 5:50 -2.4 82 0.0 0 0.0 0.6 2.1 293
11/01/2019 6:00 -2.4 81 0.0 0 0.0 0.8 3.0 313
11/01/2019 6:10 -2.5 82 0.0 0 0.0 0.4 1.4 12
11/01/2019 6:20 -2.5 84 0.0 0 0.0 0.6 2.3 280
11/01/2019 6:30 -2.6 84 0.0 0 0.0 0.4 1.4 120
11/01/2019 6:40 -2.4 84 0.0 0 0.0 0.6 2.1 19
11/01/2019 6:50 -2.2 83 0.0 0 0.0 0.7 2.5 16
11/01/2019 7:00 -2.0 83 0.0 0 0.0 1.6 5.7 341
11/01/2019 7:10 -1.9 83 0.0 0 0.0 1.3 4.5 23
11/01/2019 7:20 -1.7 82 0.0 0 0.0 2.0 7.2 0
11/01/2019 7:30 -1.7 82 0.0 0 0.0 1.5 5.4 334
11/01/2019 7:40 -1.7 82 0.0 0 0.0 2.0 7.1 346
11/01/2019 7:50 -1.8 82 0.0 0 0.0 0.9 3.2 317
11/01/2019 8:00 -1.9 83 4.3 0 0.0 0.3 0.9 214
11/01/2019 8:10 -2.0 84 17.2 0 0.0 0.6 2.3 53
11/01/2019 8:20 -1.7 82 28.2 0 0.0 1.5 5.5 324
11/01/2019 8:30 -1.1 80 41.1 0 0.0 2.8 10.0 338
11/01/2019 8:40 -0.9 80 40.6 0 0.0 1.9 6.9 337
11/01/2019 8:50 -0.8 81 47.8 0 0.0 2.5 9.1 342
11/01/2019 9:00 -0.7 81 69.3 0 0.0 2.2 8.0 349
11/01/2019 9:10 -0.5 81 117.1 414 0.0 3.2 11.6 338
11/01/2019 9:20 -0.5 82 181.8 600 0.0 3.7 13.5 334
11/01/2019 9:30 -0.3 82 217.9 472 0.0 4.2 15.0 336
11/01/2019 9:40 -0.1 81 253.2 496 0.0 4.1 14.7 333
11/01/2019 9:50 -0.1 81 228.6 444 0.0 3.5 12.7 341
11/01/2019 10:00 0.0 80 270.9 542 0.0 3.9 14.1 329
11/01/2019 10:10 0.2 80 302.9 568 0.0 3.8 13.8 329
11/01/2019 10:20 0.4 79 354.0 596 0.0 4.1 14.9 330
11/01/2019 10:30 0.5 79 337.2 600 0.0 4.4 15.7 330
11/01/2019 10:40 0.4 80 300.1 600 0.0 4.5 16.3 330
11/01/2019 10:50 0.5 79 350.7 600 0.0 3.2 11.6 334
11/01/2019 11:00 0.8 79 343.9 600 0.0 2.6 9.3 316
11/01/2019 11:10 0.8 79 327.4 600 0.0 3.3 11.9 322
11/01/2019 11:20 0.8 79 352.0 600 0.0 3.7 13.2 316
11/01/2019 11:30 1.0 78 452.4 600 0.0 3.0 10.8 321
11/01/2019 11:40 1.2 76 518.5 600 0.0 3.1 11.3 320
11/01/2019 11:50 1.5 74 590.5 600 0.0 3.6 12.9 325
11/01/2019 12:00 1.5 74 554.3 600 0.0 3.3 11.9 319
11/01/2019 12:10 1.7 71 511.5 600 0.0 3.1 11.1 323
11/01/2019 12:20 1.9 69 517.9 600 0.0 3.1 11.2 322
11/01/2019 12:30 2.1 68 553.3 600 0.0 3.4 12.4 325
11/01/2019 12:40 2.1 66 590.0 600 0.0 3.0 10.8 351
11/01/2019 12:50 2.8 63 606.6 600 0.0 2.9 10.3 317
11/01/2019 13:00 2.6 63 572.0 600 0.0 2.8 10.0 335
11/01/2019 13:10 2.7 60 586.1 600 0.0 2.2 7.9 350
11/01/2019 13:20 3.1 55 528.9 600 0.0 2.3 8.3 312
11/01/2019 13:30 3.0 53 363.7 596 0.0 2.2 7.8 318
11/01/2019 13:40 2.9 53 362.5 600 0.0 3.1 11.2 336
11/01/2019 13:50 2.9 51 383.1 508 0.0 2.8 10.1 325
11/01/2019 14:00 3.3 50 423.7 600 0.0 2.6 9.5 339
11/01/2019 14:10 3.5 49 395.8 600 0.0 2.3 8.1 328
11/01/2019 14:20 3.6 48 375.1 600 0.0 2.6 9.5 322
11/01/2019 14:30 3.5 48 359.2 600 0.0 3.0 10.9 316
11/01/2019 14:40 3.6 48 332.2 600 0.0 2.3 8.1 326
11/01/2019 14:50 3.6 48 294.9 600 0.0 3.1 11.2 317
11/01/2019 15:00 3.4 49 288.6 600 0.0 3.1 11.1 324
11/01/2019 15:10 3.2 50 273.5 600 0.0 4.2 15.0 327
11/01/2019 15:20 3.0 51 83.9 58 0.0 2.3 8.4 328
11/01/2019 15:30 2.6 52 62.9 0 0.0 2.0 7.3 326
11/01/2019 15:40 2.7 51 133.9 524 0.0 2.2 8.1 3
11/01/2019 15:50 2.9 49 123.9 600 0.0 2.2 8.1 321
11/01/2019 16:00 2.9 48 108.3 534 0.0 1.8 6.5 330
11/01/2019 16:10 2.5 49 43.2 128 0.0 2.5 9.1 324
11/01/2019 16:20 2.2 49 43.2 352 0.0 2.0 7.0 326
11/01/2019 16:30 2.4 48 31.3 380 0.0 1.1 4.1 317
11/01/2019 16:40 1.9 49 0.0 0 0.0 1.3 4.5 304
11/01/2019 16:50 1.6 50 0.0 0 0.0 1.2 4.4 289
11/01/2019 17:00 1.3 51 0.0 0 0.0 1.4 5.0 274
11/01/2019 17:10 1.3 52 0.0 0 0.0 1.1 3.9 299
11/01/2019 17:20 1.0 54 0.0 0 0.0 1.8 6.4 312
11/01/2019 17:30 0.9 55 0.0 0 0.0 2.0 7.2 348
11/01/2019 17:40 1.1 54 0.0 0 0.0 2.3 8.1 313
11/01/2019 17:50 1.0 55 0.0 0 0.0 1.6 5.8 316
11/01/2019 18:00 0.9 55 0.0 0 0.0 1.1 3.9 322
11/01/2019 18:10 1.0 56 0.0 0 0.0 1.6 5.9 290
11/01/2019 18:20 1.0 56 0.0 0 0.0 1.4 5.1 270
11/01/2019 18:30 1.0 55 0.0 0 0.0 1.4 5.0 312
11/01/2019 18:40 1.2 55 0.0 0 0.0 2.1 7.5 283
11/01/2019 18:50 1.4 54 0.0 0 0.0 1.8 6.3 303
11/01/2019 19:00 1.5 54 0.0 0 0.0 1.4 5.1 316
11/01/2019 19:10 1.4 54 0.0 0 0.0 1.3 4.6 299
11/01/2019 19:20 1.4 53 0.0 0 0.0 1.2 4.5 299
11/01/2019 19:30 1.5 51 0.0 0 0.0 1.8 6.5 295
11/01/2019 19:40 1.5 53 0.0 0 0.0 2.3 8.2 329
11/01/2019 19:50 1.4 54 0.0 0 0.0 2.8 10.0 358
11/01/2019 20:00 1.3 56 0.0 0 0.0 2.7 9.8 326
11/01/2019 20:10 1.4 55 0.0 0 0.0 1.8 6.3 330
11/01/2019 20:20 1.4 56 0.0 0 0.0 1.9 6.7 340
11/01/2019 20:30 1.4 59 0.0 0 0.0 1.8 6.4 332
11/01/2019 20:40 1.4 60 0.0 0 0.0 2.2 7.7 328
11/01/2019 20:50 1.5 60 0.0 0 0.0 2.7 9.5 326
11/01/2019 21:00 1.4 61 0.0 0 0.0 2.0 7.1 330
11/01/2019 21:10 1.4 62 0.0 0 0.0 2.4 8.6 341
11/01/2019 21:20 1.4 62 0.0 0 0.0 1.3 4.7 355
11/01/2019 21:30 1.5 63 0.0 0 0.0 3.2 11.3 328
11/01/2019 21:40 1.6 64 0.0 0 0.0 2.5 9.1 329
11/01/2019 21:50 1.7 64 0.0 0 0.0 2.3 8.4 328
11/01/2019 22:00 1.6 64 0.0 0 0.0 1.8 6.4 356
11/01/2019 22:10 1.6 65 0.0 0 0.0 2.4 8.7 347
11/01/2019 22:20 1.6 65 0.0 0 0.0 2.3 8.4 359
11/01/2019 22:30 1.6 65 0.0 0 0.0 2.5 9.0 350
11/01/2019 22:40 1.5 65 0.0 0 0.0 1.6 5.8 321
11/01/2019 22:50 1.6 66 0.0 0 0.0 2.5 9.0 339
11/01/2019 23:00 1.7 66 0.0 0 0.0 2.0 7.3 340
11/01/2019 23:10 1.7 66 0.0 0 0.0 2.9 10.3 335
11/01/2019 23:20 1.7 65 0.0 0 0.0 2.4 8.8 352
11/01/2019 23:30 1.7 67 0.0 0 0.0 2.3 8.3 332
11/01/2019 23:40 1.7 67 0.0 0 0.0 2.0 7.3 329
11/01/2019 23:50 1.8 68 0.0 0 0.0 1.3 4.5 345
Anterior Página 1 de 1 Siguiente

NOTA: Tipo de datos según el color:
   - Valores diarios o 10 minutos correctos
   - Valores diarios calculados a partir de un número de datos 10 minutos menor que 144 y mayor que 120, o de un número de datos semihorarios menor que 48 y mayor que 40 (caso de las estaciones de Riegos de Navarra y del MARM)
   - Valores diez minutos estimados


Contacto        Enlaces        Aviso legal